sensor_id;sensor_type;location;lat;lon;timestamp;P1;durP1;ratioP1;P2;durP2;ratioP2
33993;SDS011;20673;48.980;8.138;2023-06-22T00:00:55;10.30;;;6.78;;
33993;SDS011;20673;48.980;8.138;2023-06-22T00:03:22;8.75;;;6.55;;
33993;SDS011;20673;48.980;8.138;2023-06-22T00:05:51;7.87;;;6.58;;
33993;SDS011;20673;48.980;8.138;2023-06-22T00:08:18;7.22;;;6.53;;
33993;SDS011;20673;48.980;8.138;2023-06-22T00:10:45;9.25;;;7.12;;
33993;SDS011;20673;48.980;8.138;2023-06-22T00:13:12;10.23;;;7.30;;
33993;SDS011;20673;48.980;8.138;2023-06-22T00:15:40;8.80;;;7.90;;
33993;SDS011;20673;48.980;8.138;2023-06-22T00:18:07;9.93;;;8.20;;
33993;SDS011;20673;48.980;8.138;2023-06-22T00:20:35;15.68;;;8.18;;
33993;SDS011;20673;48.980;8.138;2023-06-22T00:23:07;12.82;;;9.18;;
33993;SDS011;20673;48.980;8.138;2023-06-22T00:25:34;16.65;;;10.03;;
33993;SDS011;20673;48.980;8.138;2023-06-22T00:28:02;10.25;;;9.15;;
33993;SDS011;20673;48.980;8.138;2023-06-22T00:30:30;9.35;;;8.35;;
33993;SDS011;20673;48.980;8.138;2023-06-22T00:32:57;10.98;;;9.43;;
33993;SDS011;20673;48.980;8.138;2023-06-22T00:35:24;12.05;;;8.83;;
33993;SDS011;20673;48.980;8.138;2023-06-22T00:37:53;12.60;;;8.88;;
33993;SDS011;20673;48.980;8.138;2023-06-22T00:40:21;11.57;;;9.60;;
33993;SDS011;20673;48.980;8.138;2023-06-22T00:42:47;11.90;;;9.05;;
33993;SDS011;20673;48.980;8.138;2023-06-22T00:45:13;10.50;;;8.68;;
33993;SDS011;20673;48.980;8.138;2023-06-22T00:47:41;10.43;;;9.40;;
33993;SDS011;20673;48.980;8.138;2023-06-22T00:50:08;10.72;;;9.63;;
33993;SDS011;20673;48.980;8.138;2023-06-22T00:52:39;9.93;;;8.93;;
33993;SDS011;20673;48.980;8.138;2023-06-22T00:55:08;11.25;;;9.63;;
33993;SDS011;20673;48.980;8.138;2023-06-22T00:57:35;11.05;;;8.35;;
33993;SDS011;20673;48.980;8.138;2023-06-22T01:00:02;10.43;;;9.33;;
33993;SDS011;20673;48.980;8.138;2023-06-22T01:02:32;11.97;;;9.18;;
33993;SDS011;20673;48.980;8.138;2023-06-22T01:04:59;15.93;;;9.65;;
33993;SDS011;20673;48.980;8.138;2023-06-22T01:07:31;11.08;;;9.85;;
33993;SDS011;20673;48.980;8.138;2023-06-22T01:13:06;10.90;;;8.85;;
33993;SDS011;20673;48.980;8.138;2023-06-22T01:18:30;11.43;;;9.18;;
33993;SDS011;20673;48.980;8.138;2023-06-22T01:21:01;11.47;;;8.53;;
33993;SDS011;20673;48.980;8.138;2023-06-22T01:29:15;11.20;;;9.18;;
33993;SDS011;20673;48.980;8.138;2023-06-22T01:31:43;12.40;;;10.13;;
33993;SDS011;20673;48.980;8.138;2023-06-22T01:34:12;12.65;;;10.45;;
33993;SDS011;20673;48.980;8.138;2023-06-22T01:36:40;13.05;;;9.50;;
33993;SDS011;20673;48.980;8.138;2023-06-22T01:39:09;13.05;;;10.30;;
33993;SDS011;20673;48.980;8.138;2023-06-22T01:41:37;11.20;;;10.00;;
33993;SDS011;20673;48.980;8.138;2023-06-22T01:44:07;10.82;;;9.73;;
33993;SDS011;20673;48.980;8.138;2023-06-22T01:46:35;12.65;;;9.98;;
33993;SDS011;20673;48.980;8.138;2023-06-22T01:49:03;14.38;;;10.15;;
33993;SDS011;20673;48.980;8.138;2023-06-22T01:51:31;13.83;;;11.48;;
33993;SDS011;20673;48.980;8.138;2023-06-22T01:53:57;14.98;;;10.60;;
33993;SDS011;20673;48.980;8.138;2023-06-22T01:56:24;13.27;;;10.83;;
33993;SDS011;20673;48.980;8.138;2023-06-22T01:59:37;13.70;;;10.95;;
33993;SDS011;20673;48.980;8.138;2023-06-22T02:01:47;11.00;;;9.65;;
33993;SDS011;20673;48.980;8.138;2023-06-22T02:04:21;12.18;;;9.70;;
33993;SDS011;20673;48.980;8.138;2023-06-22T02:06:51;13.40;;;11.18;;
33993;SDS011;20673;48.980;8.138;2023-06-22T02:09:25;14.83;;;10.90;;
33993;SDS011;20673;48.980;8.138;2023-06-22T02:11:55;13.15;;;11.08;;
33993;SDS011;20673;48.980;8.138;2023-06-22T02:14:24;13.55;;;10.32;;
33993;SDS011;20673;48.980;8.138;2023-06-22T02:16:51;12.60;;;9.98;;
33993;SDS011;20673;48.980;8.138;2023-06-22T02:19:22;15.80;;;11.20;;
33993;SDS011;20673;48.980;8.138;2023-06-22T02:21:50;13.80;;;11.15;;
33993;SDS011;20673;48.980;8.138;2023-06-22T02:24:16;19.50;;;10.27;;
33993;SDS011;20673;48.980;8.138;2023-06-22T02:26:43;15.03;;;11.13;;
33993;SDS011;20673;48.980;8.138;2023-06-22T02:29:11;13.17;;;10.90;;
33993;SDS011;20673;48.980;8.138;2023-06-22T02:31:37;14.47;;;11.80;;
33993;SDS011;20673;48.980;8.138;2023-06-22T02:34:03;12.05;;;10.68;;
33993;SDS011;20673;48.980;8.138;2023-06-22T02:36:29;12.03;;;10.38;;
33993;SDS011;20673;48.980;8.138;2023-06-22T02:38:55;14.73;;;11.40;;
33993;SDS011;20673;48.980;8.138;2023-06-22T02:41:24;12.97;;;11.47;;
33993;SDS011;20673;48.980;8.138;2023-06-22T02:43:50;14.20;;;11.07;;
33993;SDS011;20673;48.980;8.138;2023-06-22T02:46:16;12.13;;;10.83;;
33993;SDS011;20673;48.980;8.138;2023-06-22T02:48:42;12.90;;;11.47;;
33993;SDS011;20673;48.980;8.138;2023-06-22T02:51:08;13.20;;;11.05;;
33993;SDS011;20673;48.980;8.138;2023-06-22T02:53:35;15.20;;;11.30;;
33993;SDS011;20673;48.980;8.138;2023-06-22T02:56:02;13.28;;;10.98;;
33993;SDS011;20673;48.980;8.138;2023-06-22T02:58:31;15.05;;;11.33;;
33993;SDS011;20673;48.980;8.138;2023-06-22T03:01:02;13.70;;;10.90;;
33993;SDS011;20673;48.980;8.138;2023-06-22T03:03:30;15.80;;;11.77;;
33993;SDS011;20673;48.980;8.138;2023-06-22T03:05:56;14.67;;;11.37;;
33993;SDS011;20673;48.980;8.138;2023-06-22T03:08:23;13.83;;;11.17;;
33993;SDS011;20673;48.980;8.138;2023-06-22T03:10:49;18.60;;;11.90;;
33993;SDS011;20673;48.980;8.138;2023-06-22T03:13:15;14.50;;;11.13;;
33993;SDS011;20673;48.980;8.138;2023-06-22T03:15:42;15.47;;;12.93;;
33993;SDS011;20673;48.980;8.138;2023-06-22T03:18:08;14.73;;;12.20;;
33993;SDS011;20673;48.980;8.138;2023-06-22T03:20:34;14.43;;;11.88;;
33993;SDS011;20673;48.980;8.138;2023-06-22T03:23:00;13.83;;;11.07;;
33993;SDS011;20673;48.980;8.138;2023-06-22T03:25:26;14.23;;;11.68;;
33993;SDS011;20673;48.980;8.138;2023-06-22T03:27:52;13.77;;;11.27;;
33993;SDS011;20673;48.980;8.138;2023-06-22T03:30:18;13.80;;;10.70;;
33993;SDS011;20673;48.980;8.138;2023-06-22T03:32:44;16.30;;;12.63;;
33993;SDS011;20673;48.980;8.138;2023-06-22T03:35:12;14.77;;;12.33;;
33993;SDS011;20673;48.980;8.138;2023-06-22T03:37:39;12.87;;;11.57;;
33993;SDS011;20673;48.980;8.138;2023-06-22T03:40:06;16.67;;;11.53;;
33993;SDS011;20673;48.980;8.138;2023-06-22T03:42:33;14.13;;;11.90;;
33993;SDS011;20673;48.980;8.138;2023-06-22T03:45:01;13.77;;;12.30;;
33993;SDS011;20673;48.980;8.138;2023-06-22T03:47:29;17.48;;;13.10;;
33993;SDS011;20673;48.980;8.138;2023-06-22T03:49:55;14.20;;;11.87;;
33993;SDS011;20673;48.980;8.138;2023-06-22T03:52:21;13.50;;;12.10;;
33993;SDS011;20673;48.980;8.138;2023-06-22T03:54:48;14.93;;;11.00;;
33993;SDS011;20673;48.980;8.138;2023-06-22T03:57:14;14.83;;;11.97;;
33993;SDS011;20673;48.980;8.138;2023-06-22T03:59:40;13.27;;;11.00;;
33993;SDS011;20673;48.980;8.138;2023-06-22T04:02:06;12.63;;;11.30;;
33993;SDS011;20673;48.980;8.138;2023-06-22T04:04:32;18.10;;;11.97;;
33993;SDS011;20673;48.980;8.138;2023-06-22T04:07:00;14.43;;;11.30;;
33993;SDS011;20673;48.980;8.138;2023-06-22T04:09:27;13.07;;;10.83;;
33993;SDS011;20673;48.980;8.138;2023-06-22T04:11:53;14.05;;;11.22;;
33993;SDS011;20673;48.980;8.138;2023-06-22T04:14:19;12.40;;;11.07;;
33993;SDS011;20673;48.980;8.138;2023-06-22T04:16:45;11.63;;;10.20;;
33993;SDS011;20673;48.980;8.138;2023-06-22T04:19:11;12.60;;;11.30;;
33993;SDS011;20673;48.980;8.138;2023-06-22T04:21:39;13.83;;;10.40;;
33993;SDS011;20673;48.980;8.138;2023-06-22T04:24:06;16.70;;;11.55;;
33993;SDS011;20673;48.980;8.138;2023-06-22T04:26:32;14.00;;;11.60;;
33993;SDS011;20673;48.980;8.138;2023-06-22T04:29:00;17.93;;;11.67;;
33993;SDS011;20673;48.980;8.138;2023-06-22T04:31:28;16.05;;;11.88;;
33993;SDS011;20673;48.980;8.138;2023-06-22T04:33:56;12.77;;;11.00;;
33993;SDS011;20673;48.980;8.138;2023-06-22T04:36:22;13.80;;;12.13;;
33993;SDS011;20673;48.980;8.138;2023-06-22T04:38:48;13.60;;;11.53;;
33993;SDS011;20673;48.980;8.138;2023-06-22T04:41:16;14.93;;;10.87;;
33993;SDS011;20673;48.980;8.138;2023-06-22T04:43:44;19.50;;;13.08;;
33993;SDS011;20673;48.980;8.138;2023-06-22T04:46:12;13.10;;;11.08;;
33993;SDS011;20673;48.980;8.138;2023-06-22T04:48:38;14.33;;;10.43;;
33993;SDS011;20673;48.980;8.138;2023-06-22T04:51:05;12.78;;;10.98;;
33993;SDS011;20673;48.980;8.138;2023-06-22T04:53:31;12.28;;;11.00;;
33993;SDS011;20673;48.980;8.138;2023-06-22T04:55:57;14.80;;;11.63;;
33993;SDS011;20673;48.980;8.138;2023-06-22T04:58:23;14.93;;;11.55;;
33993;SDS011;20673;48.980;8.138;2023-06-22T05:00:51;13.73;;;11.67;;
33993;SDS011;20673;48.980;8.138;2023-06-22T05:03:18;14.07;;;10.80;;
33993;SDS011;20673;48.980;8.138;2023-06-22T05:05:44;14.13;;;10.88;;
33993;SDS011;20673;48.980;8.138;2023-06-22T05:08:10;13.22;;;11.10;;
33993;SDS011;20673;48.980;8.138;2023-06-22T05:10:39;11.97;;;10.75;;
33993;SDS011;20673;48.980;8.138;2023-06-22T05:13:05;17.42;;;11.83;;
33993;SDS011;20673;48.980;8.138;2023-06-22T05:15:31;11.97;;;10.65;;
33993;SDS011;20673;48.980;8.138;2023-06-22T05:17:59;13.15;;;11.20;;
33993;SDS011;20673;48.980;8.138;2023-06-22T05:20:27;16.42;;;11.53;;
33993;SDS011;20673;48.980;8.138;2023-06-22T05:22:53;14.45;;;10.95;;
33993;SDS011;20673;48.980;8.138;2023-06-22T05:25:19;14.80;;;10.40;;
33993;SDS011;20673;48.980;8.138;2023-06-22T05:27:45;13.40;;;10.40;;
33993;SDS011;20673;48.980;8.138;2023-06-22T05:30:11;14.87;;;11.20;;
33993;SDS011;20673;48.980;8.138;2023-06-22T05:32:38;14.43;;;11.00;;
33993;SDS011;20673;48.980;8.138;2023-06-22T05:35:04;16.62;;;11.43;;
33993;SDS011;20673;48.980;8.138;2023-06-22T05:37:31;13.48;;;11.22;;
33993;SDS011;20673;48.980;8.138;2023-06-22T05:39:57;14.87;;;10.60;;
33993;SDS011;20673;48.980;8.138;2023-06-22T05:42:23;19.95;;;10.72;;
33993;SDS011;20673;48.980;8.138;2023-06-22T05:44:51;12.90;;;11.15;;
33993;SDS011;20673;48.980;8.138;2023-06-22T05:47:18;16.70;;;11.12;;
33993;SDS011;20673;48.980;8.138;2023-06-22T05:49:44;18.82;;;10.68;;
33993;SDS011;20673;48.980;8.138;2023-06-22T05:52:11;17.80;;;11.28;;
33993;SDS011;20673;48.980;8.138;2023-06-22T05:54:37;14.95;;;11.73;;
33993;SDS011;20673;48.980;8.138;2023-06-22T05:57:04;12.58;;;10.82;;
33993;SDS011;20673;48.980;8.138;2023-06-22T05:59:30;14.30;;;11.12;;
33993;SDS011;20673;48.980;8.138;2023-06-22T06:01:56;14.95;;;11.28;;
33993;SDS011;20673;48.980;8.138;2023-06-22T06:04:22;14.75;;;10.85;;
33993;SDS011;20673;48.980;8.138;2023-06-22T06:06:48;14.70;;;10.95;;
33993;SDS011;20673;48.980;8.138;2023-06-22T06:09:14;15.75;;;10.68;;
33993;SDS011;20673;48.980;8.138;2023-06-22T06:11:40;15.03;;;10.98;;
33993;SDS011;20673;48.980;8.138;2023-06-22T06:14:07;17.45;;;11.05;;
33993;SDS011;20673;48.980;8.138;2023-06-22T06:16:33;13.15;;;10.10;;
33993;SDS011;20673;48.980;8.138;2023-06-22T06:19:00;13.90;;;10.38;;
33993;SDS011;20673;48.980;8.138;2023-06-22T06:21:26;12.93;;;10.20;;
33993;SDS011;20673;48.980;8.138;2023-06-22T06:23:52;12.93;;;10.58;;
33993;SDS011;20673;48.980;8.138;2023-06-22T06:26:18;13.28;;;9.98;;
33993;SDS011;20673;48.980;8.138;2023-06-22T06:28:46;12.33;;;10.53;;
33993;SDS011;20673;48.980;8.138;2023-06-22T06:31:12;11.45;;;10.00;;
33993;SDS011;20673;48.980;8.138;2023-06-22T06:33:40;11.10;;;9.98;;
33993;SDS011;20673;48.980;8.138;2023-06-22T06:36:06;10.58;;;9.58;;
33993;SDS011;20673;48.980;8.138;2023-06-22T06:38:33;13.60;;;9.55;;
33993;SDS011;20673;48.980;8.138;2023-06-22T06:40:59;12.95;;;10.65;;
33993;SDS011;20673;48.980;8.138;2023-06-22T06:43:25;12.93;;;9.18;;
33993;SDS011;20673;48.980;8.138;2023-06-22T06:45:52;16.60;;;10.30;;
33993;SDS011;20673;48.980;8.138;2023-06-22T06:48:18;12.65;;;10.03;;
33993;SDS011;20673;48.980;8.138;2023-06-22T06:50:44;14.05;;;9.65;;
33993;SDS011;20673;48.980;8.138;2023-06-22T06:53:10;13.20;;;9.40;;
33993;SDS011;20673;48.980;8.138;2023-06-22T06:55:36;11.28;;;9.55;;
33993;SDS011;20673;48.980;8.138;2023-06-22T06:58:03;12.63;;;9.63;;
33993;SDS011;20673;48.980;8.138;2023-06-22T07:00:33;11.68;;;8.90;;
33993;SDS011;20673;48.980;8.138;2023-06-22T07:03:01;13.22;;;9.43;;
33993;SDS011;20673;48.980;8.138;2023-06-22T07:05:27;13.00;;;9.55;;
33993;SDS011;20673;48.980;8.138;2023-06-22T07:07:53;10.70;;;8.40;;
33993;SDS011;20673;48.980;8.138;2023-06-22T07:10:19;10.65;;;9.55;;
33993;SDS011;20673;48.980;8.138;2023-06-22T07:12:46;10.15;;;9.13;;
33993;SDS011;20673;48.980;8.138;2023-06-22T07:15:13;12.68;;;9.40;;
33993;SDS011;20673;48.980;8.138;2023-06-22T07:17:39;9.63;;;8.63;;
33993;SDS011;20673;48.980;8.138;2023-06-22T07:20:06;10.98;;;9.23;;
33993;SDS011;20673;48.980;8.138;2023-06-22T07:22:36;13.00;;;9.55;;
33993;SDS011;20673;48.980;8.138;2023-06-22T07:25:05;12.82;;;9.63;;
33993;SDS011;20673;48.980;8.138;2023-06-22T07:27:38;15.68;;;9.78;;
33993;SDS011;20673;48.980;8.138;2023-06-22T07:30:08;9.38;;;8.13;;
33993;SDS011;20673;48.980;8.138;2023-06-22T07:32:35;10.65;;;9.10;;
33993;SDS011;20673;48.980;8.138;2023-06-22T07:35:02;11.68;;;9.70;;
33993;SDS011;20673;48.980;8.138;2023-06-22T07:37:30;13.10;;;9.80;;
33993;SDS011;20673;48.980;8.138;2023-06-22T07:39:58;13.25;;;9.50;;
33993;SDS011;20673;48.980;8.138;2023-06-22T07:42:25;11.95;;;9.13;;
33993;SDS011;20673;48.980;8.138;2023-06-22T07:44:51;11.97;;;8.73;;
33993;SDS011;20673;48.980;8.138;2023-06-22T07:47:19;15.60;;;9.08;;
33993;SDS011;20673;48.980;8.138;2023-06-22T07:49:46;12.23;;;9.00;;
33993;SDS011;20673;48.980;8.138;2023-06-22T07:52:12;9.15;;;8.00;;
33993;SDS011;20673;48.980;8.138;2023-06-22T07:54:38;11.57;;;8.15;;
33993;SDS011;20673;48.980;8.138;2023-06-22T07:57:04;9.73;;;8.30;;
33993;SDS011;20673;48.980;8.138;2023-06-22T07:59:31;10.98;;;8.45;;
33993;SDS011;20673;48.980;8.138;2023-06-22T08:01:57;11.08;;;9.35;;
33993;SDS011;20673;48.980;8.138;2023-06-22T08:04:23;12.40;;;9.18;;
33993;SDS011;20673;48.980;8.138;2023-06-22T08:06:49;10.38;;;8.35;;
33993;SDS011;20673;48.980;8.138;2023-06-22T08:09:15;11.70;;;7.87;;
33993;SDS011;20673;48.980;8.138;2023-06-22T08:11:41;10.78;;;8.10;;
33993;SDS011;20673;48.980;8.138;2023-06-22T08:14:07;10.45;;;8.25;;
33993;SDS011;20673;48.980;8.138;2023-06-22T08:16:33;10.00;;;8.03;;
33993;SDS011;20673;48.980;8.138;2023-06-22T08:18:59;11.55;;;7.80;;
33993;SDS011;20673;48.980;8.138;2023-06-22T08:21:25;11.63;;;7.75;;
33993;SDS011;20673;48.980;8.138;2023-06-22T08:23:52;10.35;;;8.23;;
33993;SDS011;20673;48.980;8.138;2023-06-22T08:26:18;9.93;;;8.03;;
33993;SDS011;20673;48.980;8.138;2023-06-22T08:28:44;10.40;;;8.43;;
33993;SDS011;20673;48.980;8.138;2023-06-22T08:31:10;8.88;;;7.33;;
33993;SDS011;20673;48.980;8.138;2023-06-22T08:33:37;12.00;;;7.90;;
33993;SDS011;20673;48.980;8.138;2023-06-22T08:36:04;8.30;;;7.47;;
33993;SDS011;20673;48.980;8.138;2023-06-22T08:38:31;10.30;;;7.83;;
33993;SDS011;20673;48.980;8.138;2023-06-22T08:40:57;10.15;;;7.40;;
33993;SDS011;20673;48.980;8.138;2023-06-22T08:43:23;8.73;;;7.85;;
33993;SDS011;20673;48.980;8.138;2023-06-22T08:45:49;9.85;;;7.55;;
33993;SDS011;20673;48.980;8.138;2023-06-22T08:48:16;11.55;;;8.75;;
33993;SDS011;20673;48.980;8.138;2023-06-22T08:50:42;10.82;;;7.97;;
33993;SDS011;20673;48.980;8.138;2023-06-22T08:53:08;10.65;;;7.50;;
33993;SDS011;20673;48.980;8.138;2023-06-22T08:55:34;10.30;;;7.95;;
33993;SDS011;20673;48.980;8.138;2023-06-22T08:58:00;8.70;;;7.78;;
33993;SDS011;20673;48.980;8.138;2023-06-22T09:00:26;10.35;;;7.65;;
33993;SDS011;20673;48.980;8.138;2023-06-22T09:02:54;9.15;;;7.45;;
33993;SDS011;20673;48.980;8.138;2023-06-22T09:05:22;8.88;;;7.35;;
33993;SDS011;20673;48.980;8.138;2023-06-22T09:07:48;9.65;;;7.90;;
33993;SDS011;20673;48.980;8.138;2023-06-22T09:10:14;9.20;;;7.22;;
33993;SDS011;20673;48.980;8.138;2023-06-22T09:12:40;11.05;;;8.45;;
33993;SDS011;20673;48.980;8.138;2023-06-22T09:15:07;10.70;;;7.70;;
33993;SDS011;20673;48.980;8.138;2023-06-22T09:17:34;11.93;;;8.15;;
33993;SDS011;20673;48.980;8.138;2023-06-22T09:20:01;11.22;;;7.67;;
33993;SDS011;20673;48.980;8.138;2023-06-22T09:22:29;8.98;;;8.08;;
33993;SDS011;20673;48.980;8.138;2023-06-22T09:24:55;9.38;;;7.50;;
33993;SDS011;20673;48.980;8.138;2023-06-22T09:27:21;11.88;;;7.25;;
33993;SDS011;20673;48.980;8.138;2023-06-22T09:29:49;12.03;;;7.78;;
33993;SDS011;20673;48.980;8.138;2023-06-22T09:32:15;7.97;;;6.90;;
33993;SDS011;20673;48.980;8.138;2023-06-22T09:34:41;9.70;;;7.20;;
33993;SDS011;20673;48.980;8.138;2023-06-22T09:37:07;12.23;;;7.75;;
33993;SDS011;20673;48.980;8.138;2023-06-22T09:39:34;12.95;;;7.50;;
33993;SDS011;20673;48.980;8.138;2023-06-22T09:42:00;8.60;;;7.53;;
33993;SDS011;20673;48.980;8.138;2023-06-22T09:44:26;7.85;;;7.12;;
33993;SDS011;20673;48.980;8.138;2023-06-22T09:46:52;9.30;;;7.20;;
33993;SDS011;20673;48.980;8.138;2023-06-22T09:49:18;11.12;;;7.35;;
33993;SDS011;20673;48.980;8.138;2023-06-22T09:51:45;12.15;;;7.05;;
33993;SDS011;20673;48.980;8.138;2023-06-22T09:54:11;8.85;;;7.30;;
33993;SDS011;20673;48.980;8.138;2023-06-22T09:56:37;10.65;;;6.85;;
33993;SDS011;20673;48.980;8.138;2023-06-22T09:59:03;9.85;;;7.35;;
33993;SDS011;20673;48.980;8.138;2023-06-22T10:01:29;9.70;;;6.85;;
33993;SDS011;20673;48.980;8.138;2023-06-22T10:03:55;11.60;;;7.28;;
33993;SDS011;20673;48.980;8.138;2023-06-22T10:06:22;7.70;;;6.72;;
33993;SDS011;20673;48.980;8.138;2023-06-22T10:08:50;12.85;;;6.75;;
33993;SDS011;20673;48.980;8.138;2023-06-22T10:11:17;12.58;;;7.62;;
33993;SDS011;20673;48.980;8.138;2023-06-22T10:13:43;10.65;;;7.90;;
33993;SDS011;20673;48.980;8.138;2023-06-22T10:16:09;8.28;;;7.33;;
33993;SDS011;20673;48.980;8.138;2023-06-22T10:18:36;12.43;;;7.67;;
33993;SDS011;20673;48.980;8.138;2023-06-22T10:21:02;7.85;;;6.87;;
33993;SDS011;20673;48.980;8.138;2023-06-22T10:23:28;10.80;;;7.12;;
33993;SDS011;20673;48.980;8.138;2023-06-22T10:25:54;13.35;;;7.85;;
33993;SDS011;20673;48.980;8.138;2023-06-22T10:28:22;10.85;;;7.33;;
33993;SDS011;20673;48.980;8.138;2023-06-22T10:30:48;8.30;;;6.83;;
33993;SDS011;20673;48.980;8.138;2023-06-22T10:33:14;11.08;;;7.00;;
33993;SDS011;20673;48.980;8.138;2023-06-22T10:35:40;11.00;;;7.42;;
33993;SDS011;20673;48.980;8.138;2023-06-22T10:38:06;8.93;;;7.12;;
33993;SDS011;20673;48.980;8.138;2023-06-22T10:40:33;9.03;;;6.33;;
33993;SDS011;20673;48.980;8.138;2023-06-22T10:43:00;8.00;;;6.65;;
33993;SDS011;20673;48.980;8.138;2023-06-22T10:45:26;10.45;;;6.90;;
33993;SDS011;20673;48.980;8.138;2023-06-22T10:47:52;12.43;;;7.85;;
33993;SDS011;20673;48.980;8.138;2023-06-22T10:50:19;14.80;;;7.65;;
33993;SDS011;20673;48.980;8.138;2023-06-22T10:52:45;10.10;;;6.80;;
33993;SDS011;20673;48.980;8.138;2023-06-22T10:55:11;11.48;;;7.22;;
33993;SDS011;20673;48.980;8.138;2023-06-22T10:57:38;10.30;;;7.45;;
33993;SDS011;20673;48.980;8.138;2023-06-22T11:00:06;11.90;;;7.70;;
33993;SDS011;20673;48.980;8.138;2023-06-22T11:02:34;11.25;;;7.33;;
33993;SDS011;20673;48.980;8.138;2023-06-22T11:05:00;10.45;;;7.45;;
33993;SDS011;20673;48.980;8.138;2023-06-22T11:07:26;10.05;;;7.55;;
33993;SDS011;20673;48.980;8.138;2023-06-22T11:09:54;8.63;;;7.08;;
33993;SDS011;20673;48.980;8.138;2023-06-22T11:12:20;7.87;;;7.10;;
33993;SDS011;20673;48.980;8.138;2023-06-22T11:14:47;11.40;;;8.05;;
33993;SDS011;20673;48.980;8.138;2023-06-22T11:17:13;9.08;;;7.62;;
33993;SDS011;20673;48.980;8.138;2023-06-22T11:19:39;9.95;;;7.00;;
33993;SDS011;20673;48.980;8.138;2023-06-22T11:22:05;7.85;;;6.75;;
33993;SDS011;20673;48.980;8.138;2023-06-22T11:24:31;10.85;;;7.50;;
33993;SDS011;20673;48.980;8.138;2023-06-22T11:26:58;10.18;;;7.42;;
33993;SDS011;20673;48.980;8.138;2023-06-22T11:29:24;10.23;;;7.25;;
33993;SDS011;20673;48.980;8.138;2023-06-22T11:31:50;10.63;;;7.33;;
33993;SDS011;20673;48.980;8.138;2023-06-22T11:34:16;8.70;;;7.50;;
33993;SDS011;20673;48.980;8.138;2023-06-22T11:36:44;10.75;;;8.23;;
33993;SDS011;20673;48.980;8.138;2023-06-22T11:39:10;10.40;;;7.33;;
33993;SDS011;20673;48.980;8.138;2023-06-22T11:41:38;11.70;;;7.75;;
33993;SDS011;20673;48.980;8.138;2023-06-22T11:44:04;8.63;;;7.30;;
33993;SDS011;20673;48.980;8.138;2023-06-22T11:46:31;8.20;;;7.22;;
33993;SDS011;20673;48.980;8.138;2023-06-22T11:48:58;10.75;;;7.83;;
33993;SDS011;20673;48.980;8.138;2023-06-22T11:51:24;12.20;;;8.00;;
33993;SDS011;20673;48.980;8.138;2023-06-22T11:53:50;11.30;;;7.00;;
33993;SDS011;20673;48.980;8.138;2023-06-22T11:56:16;9.50;;;7.85;;
33993;SDS011;20673;48.980;8.138;2023-06-22T11:58:42;7.45;;;6.70;;
33993;SDS011;20673;48.980;8.138;2023-06-22T12:01:08;15.20;;;7.62;;
33993;SDS011;20673;48.980;8.138;2023-06-22T12:03:34;8.50;;;6.70;;
33993;SDS011;20673;48.980;8.138;2023-06-22T12:06:01;8.60;;;7.60;;
33993;SDS011;20673;48.980;8.138;2023-06-22T12:08:27;11.38;;;7.72;;
33993;SDS011;20673;48.980;8.138;2023-06-22T12:10:53;12.15;;;7.42;;
33993;SDS011;20673;48.980;8.138;2023-06-22T12:13:19;12.50;;;7.45;;
33993;SDS011;20673;48.980;8.138;2023-06-22T12:15:45;12.80;;;7.95;;
33993;SDS011;20673;48.980;8.138;2023-06-22T12:18:11;9.98;;;8.03;;
33993;SDS011;20673;48.980;8.138;2023-06-22T12:20:39;11.03;;;7.80;;
33993;SDS011;20673;48.980;8.138;2023-06-22T12:23:06;12.88;;;9.10;;
33993;SDS011;20673;48.980;8.138;2023-06-22T12:25:32;12.33;;;8.95;;
33993;SDS011;20673;48.980;8.138;2023-06-22T12:27:58;11.25;;;8.10;;
33993;SDS011;20673;48.980;8.138;2023-06-22T12:30:24;13.05;;;9.00;;
33993;SDS011;20673;48.980;8.138;2023-06-22T12:32:50;12.70;;;8.35;;
33993;SDS011;20673;48.980;8.138;2023-06-22T12:35:16;14.07;;;8.85;;
33993;SDS011;20673;48.980;8.138;2023-06-22T12:37:42;10.30;;;7.87;;
33993;SDS011;20673;48.980;8.138;2023-06-22T12:40:09;9.03;;;7.20;;
33993;SDS011;20673;48.980;8.138;2023-06-22T12:42:36;13.68;;;9.28;;
33993;SDS011;20673;48.980;8.138;2023-06-22T12:45:02;13.90;;;9.30;;
33993;SDS011;20673;48.980;8.138;2023-06-22T12:47:29;11.63;;;7.95;;
33993;SDS011;20673;48.980;8.138;2023-06-22T12:49:56;11.70;;;7.87;;
33993;SDS011;20673;48.980;8.138;2023-06-22T12:52:22;14.18;;;7.80;;
33993;SDS011;20673;48.980;8.138;2023-06-22T12:54:48;12.45;;;8.58;;
33993;SDS011;20673;48.980;8.138;2023-06-22T12:57:14;11.45;;;8.38;;
33993;SDS011;20673;48.980;8.138;2023-06-22T12:59:41;15.53;;;8.15;;
33993;SDS011;20673;48.980;8.138;2023-06-22T13:02:07;12.65;;;7.40;;
33993;SDS011;20673;48.980;8.138;2023-06-22T13:04:33;12.07;;;7.47;;
33993;SDS011;20673;48.980;8.138;2023-06-22T13:07:00;12.37;;;8.60;;
33993;SDS011;20673;48.980;8.138;2023-06-22T13:09:26;12.85;;;8.18;;
33993;SDS011;20673;48.980;8.138;2023-06-22T13:11:52;11.88;;;7.72;;
33993;SDS011;20673;48.980;8.138;2023-06-22T13:14:18;12.10;;;7.28;;
33993;SDS011;20673;48.980;8.138;2023-06-22T13:16:44;14.10;;;7.35;;
33993;SDS011;20673;48.980;8.138;2023-06-22T13:19:10;9.65;;;6.92;;
33993;SDS011;20673;48.980;8.138;2023-06-22T13:21:37;12.70;;;7.53;;
33993;SDS011;20673;48.980;8.138;2023-06-22T13:24:03;11.43;;;7.50;;
33993;SDS011;20673;48.980;8.138;2023-06-22T13:26:31;14.10;;;7.22;;
33993;SDS011;20673;48.980;8.138;2023-06-22T13:28:58;11.80;;;7.40;;
33993;SDS011;20673;48.980;8.138;2023-06-22T13:31:25;11.75;;;7.53;;
33993;SDS011;20673;48.980;8.138;2023-06-22T13:33:51;12.00;;;6.55;;
33993;SDS011;20673;48.980;8.138;2023-06-22T13:36:18;14.73;;;7.75;;
33993;SDS011;20673;48.980;8.138;2023-06-22T13:38:45;15.23;;;7.47;;
33993;SDS011;20673;48.980;8.138;2023-06-22T13:41:11;14.93;;;7.87;;
33993;SDS011;20673;48.980;8.138;2023-06-22T13:43:37;9.85;;;6.70;;
33993;SDS011;20673;48.980;8.138;2023-06-22T13:46:03;12.13;;;6.65;;
33993;SDS011;20673;48.980;8.138;2023-06-22T13:48:29;12.33;;;7.53;;
33993;SDS011;20673;48.980;8.138;2023-06-22T13:50:55;13.15;;;7.58;;
33993;SDS011;20673;48.980;8.138;2023-06-22T13:53:24;10.65;;;6.40;;
33993;SDS011;20673;48.980;8.138;2023-06-22T13:55:51;14.63;;;8.40;;
33993;SDS011;20673;48.980;8.138;2023-06-22T13:58:17;16.10;;;7.67;;
33993;SDS011;20673;48.980;8.138;2023-06-22T14:00:45;15.13;;;8.35;;
33993;SDS011;20673;48.980;8.138;2023-06-22T14:03:11;12.18;;;7.92;;
33993;SDS011;20673;48.980;8.138;2023-06-22T14:05:39;12.35;;;7.47;;
33993;SDS011;20673;48.980;8.138;2023-06-22T14:08:07;15.05;;;8.05;;
33993;SDS011;20673;48.980;8.138;2023-06-22T14:10:33;19.10;;;7.45;;
33993;SDS011;20673;48.980;8.138;2023-06-22T14:12:59;14.65;;;5.97;;
33993;SDS011;20673;48.980;8.138;2023-06-22T14:15:25;13.90;;;5.20;;
33993;SDS011;20673;48.980;8.138;2023-06-22T14:17:51;10.93;;;5.87;;
33993;SDS011;20673;48.980;8.138;2023-06-22T14:20:18;18.42;;;5.22;;
33993;SDS011;20673;48.980;8.138;2023-06-22T14:22:44;14.50;;;5.37;;
33993;SDS011;20673;48.980;8.138;2023-06-22T14:25:10;12.50;;;5.17;;
33993;SDS011;20673;48.980;8.138;2023-06-22T14:27:36;18.10;;;7.85;;
33993;SDS011;20673;48.980;8.138;2023-06-22T14:30:02;15.85;;;7.20;;
33993;SDS011;20673;48.980;8.138;2023-06-22T14:32:29;14.65;;;6.87;;
33993;SDS011;20673;48.980;8.138;2023-06-22T14:34:55;10.28;;;6.05;;
33993;SDS011;20673;48.980;8.138;2023-06-22T14:37:21;13.62;;;5.87;;
33993;SDS011;20673;48.980;8.138;2023-06-22T14:39:47;13.72;;;6.67;;
33993;SDS011;20673;48.980;8.138;2023-06-22T14:42:13;10.75;;;6.53;;